This is the latest recevied weather packets stored in our database for station/object DM3DP. If no packets are shown the sender has not sent any weather packets the latest 10 day(s).
| Time | Temp. | Humidity | Pressure | Rain* | Wind** | Luminosity | Snow |
|---|---|---|---|---|---|---|---|
| 1777893355 | 21.11° C | 63% | 1011 hPa | 0 mm | - | 155 W/m² | - |
| 1777893025 | 21.67° C | 63% | 1011.1 hPa | 0 mm | - | 146 W/m² | - |
| 1777892694 | 21.67° C | 62% | 1011.1 hPa | 0 mm | - | 156 W/m² | - |
| 1777892367 | 21.67° C | 62% | 1011.2 hPa | 0 mm | - | 168 W/m² | - |
| 1777892034 | 21.67° C | 64% | 1011.3 hPa | 0 mm | - | 180 W/m² | - |
| 1777891704 | 21.67° C | 62% | 1011.3 hPa | 0 mm | - | 193 W/m² | - |
| 1777891374 | 21.67° C | 62% | 1011.3 hPa | 0 mm | - | 214 W/m² | - |
| 1777889064 | 21.11° C | 69% | 1011.4 hPa | 0 mm | - | 622 W/m² | - |
| 1777888735 | 21.11° C | 69% | 1011.4 hPa | 0 mm | - | 804 W/m² | - |
| 1777888404 | 20.56° C | 69% | 1011.5 hPa | 0 mm | - | 829 W/m² | - |
| 1777888075 | 20.56° C | 69% | 1011.5 hPa | 0 mm | - | 718 W/m² | - |
| 1777887745 | 20.56° C | 69% | 1011.6 hPa | 0 mm | - | 832 W/m² | - |
| 1777887414 | 20° C | 69% | 1011.6 hPa | 0 mm | - | 849 W/m² | - |
| 1777887085 | 20° C | 69% | 1011.6 hPa | 0 mm | - | 877 W/m² | - |
| 1777886754 | 20° C | 69% | 1011.6 hPa | 0 mm | - | 878 W/m² | - |
| 1777886425 | 19.44° C | 69% | 1011.6 hPa | 0 mm | - | 869 W/m² | - |
| 1777886094 | 19.44° C | 69% | 1011.6 hPa | 0 mm | - | 858 W/m² | - |
| 1777885764 | 19.44° C | 69% | 1011.6 hPa | 0 mm | - | 873 W/m² | - |
| 1777885435 | 19.44° C | 69% | 1011.6 hPa | 0 mm | - | 870 W/m² | - |
| 1777885104 | 19.44° C | 69% | 1011.6 hPa | 0 mm | - | 857 W/m² | - |
| 1777884774 | 18.89° C | 70% | 1011.6 hPa | 0 mm | - | 858 W/m² | - |
| 1777884445 | 18.89° C | 71% | 1011.6 hPa | 0 mm | - | 847 W/m² | - |
| 1777884114 | 18.89° C | 71% | 1011.6 hPa | 0 mm | - | 838 W/m² | - |
| 1777883784 | 18.33° C | 73% | 1011.6 hPa | 0 mm | - | 856 W/m² | - |
| 1777883454 | 18.33° C | 72% | 1011.6 hPa | 0 mm | - | 858 W/m² | - |
* Rain latest hour (hover to see other rain measurements)
** Current wind speed in m/s (hover to see current wind gust speed)